createdAt,value
2022-09-04T00:00:36.214Z,99821.38
2022-09-04T00:03:28.538Z,99818.75
2022-09-04T00:06:00.303Z,99826.69
2022-09-04T00:08:58.634Z,99824.00
2022-09-04T00:11:44.920Z,99831.91
2022-09-04T00:14:19.967Z,99829.31
2022-09-04T00:16:54.903Z,99833.69
2022-09-04T00:19:33.727Z,99831.06
2022-09-04T00:22:05.984Z,99838.09
2022-09-04T00:24:39.591Z,99845.16
2022-09-04T00:27:15.329Z,99840.75
2022-09-04T00:29:53.105Z,99847.78
2022-09-04T00:32:34.894Z,99846.06
2022-09-04T00:35:12.369Z,99843.41
2022-09-04T00:37:47.451Z,99834.59
2022-09-04T00:40:25.443Z,99841.66
2022-09-04T00:43:20.112Z,99844.31
2022-09-04T00:46:13.881Z,99844.31
2022-09-04T00:49:11.624Z,99846.94
2022-09-04T00:51:48.700Z,99846.94
2022-09-04T00:54:39.055Z,99850.47
2022-09-04T00:57:55.111Z,99848.75
2022-09-04T01:00:27.955Z,99847.84
2022-09-04T01:03:41.115Z,99847.00
2022-09-04T01:06:30.935Z,99853.13
2022-09-04T01:09:46.883Z,99854.91
2022-09-04T01:12:33.752Z,99854.03
2022-09-04T01:15:15.639Z,99854.03
2022-09-04T01:17:59.686Z,99854.91
2022-09-04T01:20:47.055Z,99861.03
2022-09-04T01:23:35.056Z,99862.81
2022-09-04T01:26:10.311Z,99863.69
2022-09-04T01:29:03.111Z,99861.91
2022-09-04T01:31:43.130Z,99865.44
2022-09-04T01:34:30.703Z,99861.91
2022-09-04T01:37:10.889Z,99868.97
2022-09-04T01:39:41.381Z,99861.91
2022-09-04T01:42:19.730Z,99859.28
2022-09-04T01:44:49.804Z,99865.44
2022-09-04T01:47:27.225Z,99865.44
2022-09-04T01:50:01.585Z,99861.06
2022-09-04T01:52:45.065Z,99861.03
2022-09-04T01:55:24.240Z,99870.69
2022-09-04T01:58:11.426Z,99866.31
2022-09-04T02:00:50.705Z,99866.31
2022-09-04T02:03:32.722Z,99870.69
2022-09-04T02:06:13.773Z,99875.13
2022-09-04T02:09:12.629Z,99880.38
2022-09-04T02:11:49.004Z,99883.00
2022-09-04T02:14:34.334Z,99881.25
2022-09-04T02:17:18.413Z,99891.78
2022-09-04T02:20:08.477Z,99896.16
2022-09-04T02:22:46.557Z,99890.91
2022-09-04T02:25:27.460Z,99894.41
2022-09-04T02:28:12.765Z,99892.66
2022-09-04T02:30:54.313Z,99904.94
2022-09-04T02:33:35.467Z,99895.28
2022-09-04T02:36:11.935Z,99896.16
2022-09-04T02:38:51.406Z,99901.44
2022-09-04T02:41:30.408Z,99900.56
2022-09-04T02:44:16.337Z,99902.28
2022-09-04T02:46:58.290Z,99893.53
2022-09-04T02:49:38.120Z,99896.16
2022-09-04T02:52:23.573Z,99916.34
2022-09-04T02:55:09.595Z,99912.78
2022-09-04T02:57:50.374Z,99918.94
2022-09-04T03:00:22.350Z,99922.44
2022-09-04T03:03:03.164Z,99918.91
2022-09-04T03:05:35.736Z,99922.44
2022-09-04T03:08:14.609Z,99922.41
2022-09-04T03:10:48.759Z,99928.59
2022-09-04T03:13:26.484Z,99925.94
2022-09-04T03:16:02.537Z,99931.19
2022-09-04T03:18:53.669Z,99929.44
2022-09-04T03:21:30.178Z,99939.97
2022-09-04T03:24:07.663Z,99927.69
2022-09-04T03:26:38.709Z,99934.69
2022-09-04T03:29:21.974Z,99929.41
2022-09-04T03:31:59.398Z,99935.53
2022-09-04T03:34:42.039Z,99939.97
2022-09-04T03:37:34.321Z,99931.16
2022-09-04T03:40:17.930Z,99937.28
2022-09-04T03:43:04.059Z,99935.56
2022-09-04T03:45:44.528Z,99938.16
2022-09-04T03:48:28.520Z,99945.19
2022-09-04T03:51:04.692Z,99947.84
2022-09-04T03:53:42.559Z,99944.31
2022-09-04T03:56:37.975Z,99946.94
2022-09-04T03:59:08.690Z,99949.56
2022-09-04T04:01:54.556Z,99952.19
2022-09-04T04:05:00.542Z,99942.50
2022-09-04T04:07:47.158Z,99950.41
2022-09-04T04:10:31.142Z,99946.00
2022-09-04T04:13:22.880Z,99953.00
2022-09-04T04:16:12.357Z,99954.75
2022-09-04T04:19:03.864Z,99947.75
2022-09-04T04:21:55.927Z,99956.50
2022-09-04T04:24:51.624Z,99959.97
2022-09-04T04:27:37.104Z,99953.84
2022-09-04T04:30:12.436Z,99961.75
2022-09-04T04:33:09.381Z,99964.34
2022-09-04T04:35:48.291Z,99960.84
2022-09-04T04:38:34.955Z,99965.19
2022-09-04T04:41:59.132Z,99975.66
2022-09-04T04:47:43.931Z,99980.94
2022-09-04T04:50:23.162Z,99984.41
2022-09-04T04:53:01.282Z,99981.78
2022-09-04T04:55:49.271Z,99985.28
2022-09-04T04:58:48.216Z,99992.25
2022-09-04T05:01:34.882Z,99996.69
2022-09-04T05:04:15.214Z,99994.03
2022-09-04T05:06:54.163Z,99999.28
2022-09-04T05:09:34.636Z,100008.03
2022-09-04T05:12:11.861Z,100010.66
2022-09-04T05:14:53.114Z,100013.28
2022-09-04T05:17:35.889Z,100015.91
2022-09-04T05:20:31.112Z,100018.50
2022-09-04T05:23:13.871Z,100021.16
2022-09-04T05:25:51.824Z,100032.50
2022-09-04T05:28:34.048Z,100029.91
2022-09-04T05:31:29.841Z,100036.00
2022-09-04T05:34:06.469Z,100037.78
2022-09-04T05:36:49.018Z,100050.91
2022-09-04T05:39:29.228Z,100053.56
2022-09-04T05:42:19.837Z,100051.78
2022-09-04T05:44:59.960Z,100061.47
2022-09-04T05:47:48.899Z,100054.41
2022-09-04T05:51:18.561Z,100054.41
2022-09-04T05:54:20.742Z,100070.19
2022-09-04T05:57:19.268Z,100072.81
2022-09-04T06:00:09.995Z,100073.69
2022-09-04T06:03:08.085Z,100081.59
2022-09-04T06:05:56.491Z,100075.47
2022-09-04T06:08:51.097Z,100083.34
2022-09-04T06:11:41.338Z,100084.25
2022-09-04T06:14:28.795Z,100087.78
2022-09-04T06:17:16.668Z,100099.16
2022-09-04T06:20:08.941Z,100090.38
2022-09-04T06:23:05.622Z,100104.44
2022-09-04T06:25:59.835Z,100105.34
2022-09-04T06:28:57.303Z,100098.34
2022-09-04T06:32:04.297Z,100103.56
2022-09-04T06:34:54.804Z,100104.50
2022-09-04T06:37:36.514Z,100099.22
2022-09-04T06:40:20.910Z,100101.88
2022-09-04T06:43:09.992Z,100108.91
2022-09-04T06:45:55.881Z,100108.91
2022-09-04T06:48:43.952Z,100106.28
2022-09-04T06:51:35.574Z,100100.13
2022-09-04T06:54:17.220Z,100094.91
2022-09-04T06:57:05.041Z,100101.06
2022-09-04T06:59:55.948Z,100109.81
2022-09-04T07:02:55.886Z,100113.31
2022-09-04T07:05:33.084Z,100117.75
2022-09-04T07:08:14.094Z,100123.91
2022-09-04T07:10:47.889Z,100127.41
2022-09-04T07:13:44.246Z,100125.66
2022-09-04T07:16:31.875Z,100130.97
2022-09-04T07:19:32.989Z,100127.44
2022-09-04T07:22:20.361Z,100124.84
2022-09-04T07:25:08.908Z,100123.13
2022-09-04T07:27:55.877Z,100124.00
2022-09-04T07:30:27.066Z,100124.06
2022-09-04T07:33:03.706Z,100119.69
2022-09-04T07:35:39.703Z,100130.22
2022-09-04T07:38:20.481Z,100133.75
2022-09-04T07:40:59.332Z,100138.13
2022-09-04T07:43:39.401Z,100132.03
2022-09-04T07:46:19.794Z,100139.94
2022-09-04T07:48:56.562Z,100148.72
2022-09-04T07:51:34.730Z,100148.75
2022-09-04T07:54:46.225Z,100142.63
2022-09-04T07:57:50.466Z,100148.78
2022-09-04T08:00:22.781Z,100152.34
2022-09-04T08:03:24.882Z,100163.78
2022-09-04T08:06:02.482Z,100164.69
2022-09-04T08:09:24.425Z,100169.97
2022-09-04T08:12:28.654Z,100164.75
2022-09-04T08:15:03.332Z,100165.63
2022-09-04T08:17:59.406Z,100166.56
2022-09-04T08:20:44.330Z,100171.00
2022-09-04T08:23:55.404Z,100168.41
2022-09-04T08:26:39.880Z,100168.41
2022-09-04T08:29:31.321Z,100165.78
2022-09-04T08:32:18.149Z,100171.13
2022-09-04T08:35:07.227Z,100179.06
2022-09-04T08:37:52.214Z,100180.84
2022-09-04T08:41:00.522Z,100182.63
2022-09-04T08:44:02.300Z,100179.16
2022-09-04T08:47:05.272Z,100187.91
2022-09-04T08:50:29.798Z,100185.28
2022-09-04T08:53:45.067Z,100198.53
2022-09-04T08:56:27.906Z,100179.19
2022-09-04T08:59:42.786Z,100188.88
2022-09-04T09:03:14.615Z,100190.66
2022-09-04T09:06:20.984Z,100189.81
2022-09-04T09:09:35.189Z,100189.84
2022-09-04T09:12:56.220Z,100196.88
2022-09-04T09:16:12.408Z,100189.88
2022-09-04T09:19:12.675Z,100197.78
2022-09-04T09:21:49.367Z,100191.69
2022-09-04T09:24:54.688Z,100196.97
2022-09-04T09:28:13.375Z,100187.31
2022-09-04T09:31:21.656Z,100186.44
2022-09-04T09:35:00.869Z,100191.72
2022-09-04T09:38:04.534Z,100190.84
2022-09-04T09:41:29.587Z,100194.34
2022-09-04T09:44:53.016Z,100186.44
2022-09-04T09:48:11.838Z,100187.31
2022-09-04T09:51:19.771Z,100192.59
2022-09-04T09:54:38.845Z,100183.78
2022-09-04T09:57:50.058Z,100180.28
2022-09-04T10:00:19.920Z,100184.69
2022-09-04T10:03:50.605Z,100180.28
2022-09-04T10:07:03.680Z,100178.50
2022-09-04T10:10:04.355Z,100175.88
2022-09-04T10:13:20.374Z,100178.50
2022-09-04T10:16:57.098Z,100181.16
2022-09-04T10:20:12.900Z,100182.00
2022-09-04T10:23:18.204Z,100175.81
2022-09-04T10:26:39.689Z,100179.31
2022-09-04T10:29:45.753Z,100187.25
2022-09-04T10:32:35.591Z,100188.13
2022-09-04T10:35:25.494Z,100181.94
2022-09-04T10:38:25.922Z,100184.56
2022-09-04T10:41:50.338Z,100185.47
2022-09-04T10:44:46.379Z,100173.09
2022-09-04T10:47:30.736Z,100180.09
2022-09-04T10:50:26.869Z,100178.31
2022-09-04T10:53:23.716Z,100181.84
2022-09-04T10:56:17.534Z,100186.19
2022-09-04T10:59:30.805Z,100188.84
2022-09-04T11:02:35.217Z,100179.06
2022-09-04T11:05:23.159Z,100183.41
2022-09-04T11:08:39.051Z,100180.72
2022-09-04T11:11:36.431Z,100177.16
2022-09-04T11:14:43.400Z,100186.78
2022-09-04T11:17:50.799Z,100177.09
2022-09-04T11:21:21.139Z,100177.91
2022-09-04T11:24:43.707Z,100185.84
2022-09-04T11:28:00.135Z,100184.06
2022-09-04T11:30:48.575Z,100184.91
2022-09-04T11:34:11.765Z,100178.66
2022-09-04T11:37:28.049Z,100168.03
2022-09-04T11:40:43.710Z,100176.81
2022-09-04T11:43:43.231Z,100173.16
2022-09-04T11:46:51.331Z,100164.28
2022-09-04T11:49:59.294Z,100164.25
2022-09-04T11:53:11.394Z,100172.16
2022-09-04T12:00:07.216Z,100172.94
2022-09-04T12:03:26.349Z,100171.09
2022-09-04T12:06:13.351Z,100182.53
2022-09-04T12:09:24.510Z,100173.69
2022-09-04T12:12:38.598Z,100171.03
2022-09-04T12:15:45.978Z,100175.41
2022-09-04T12:18:58.602Z,100182.47
2022-09-04T12:22:36.545Z,100174.50
2022-09-04T12:25:39.477Z,100177.97
2022-09-04T12:28:53.328Z,100179.69
2022-09-04T12:31:51.580Z,100193.81
2022-09-04T12:34:42.687Z,100184.94
2022-09-04T12:37:54.241Z,100187.59
2022-09-04T12:40:35.633Z,100177.84
2022-09-04T12:43:26.295Z,100173.41
2022-09-04T12:46:12.782Z,100177.75
2022-09-04T12:49:00.165Z,100177.69
2022-09-04T12:51:38.680Z,100172.31
2022-09-04T12:54:25.009Z,100179.31
2022-09-04T12:57:08.860Z,100180.16
2022-09-04T12:59:57.395Z,100189.84
2022-09-04T13:02:39.686Z,100180.94
2022-09-04T13:05:41.784Z,100187.94
2022-09-04T13:08:29.966Z,100185.19
2022-09-04T13:11:17.886Z,100180.75
2022-09-04T13:14:11.153Z,100181.63
2022-09-04T13:16:53.225Z,100178.97
2022-09-04T13:19:35.224Z,100186.06
2022-09-04T13:22:24.912Z,100186.13
2022-09-04T13:25:05.005Z,100185.25
2022-09-04T13:27:48.266Z,100203.81
2022-09-04T13:30:24.484Z,100184.31
2022-09-04T13:33:22.253Z,100184.28
2022-09-04T13:36:11.216Z,100185.09
2022-09-04T13:39:24.908Z,100188.63
2022-09-04T13:42:24.516Z,100184.13
2022-09-04T13:45:04.163Z,100182.22
2022-09-04T13:47:47.909Z,100182.97
2022-09-04T13:50:26.095Z,100193.44
2022-09-04T13:52:59.717Z,100188.97
2022-09-04T13:55:34.650Z,100181.78
2022-09-04T13:58:13.951Z,100180.88
2022-09-04T14:00:47.518Z,100185.25
2022-09-04T14:03:31.517Z,100180.81
2022-09-04T14:06:03.468Z,100178.16
2022-09-04T14:08:34.600Z,100189.66
2022-09-04T14:11:44.553Z,100189.69
2022-09-04T14:14:43.238Z,100188.00
2022-09-04T14:17:12.590Z,100185.34
2022-09-04T14:19:57.620Z,100192.50
2022-09-04T14:22:39.825Z,100188.97
2022-09-04T14:25:18.811Z,100195.16
2022-09-04T14:28:00.195Z,100194.22
2022-09-04T14:30:30.882Z,100195.16
2022-09-04T14:33:19.338Z,100191.63
2022-09-04T14:36:07.214Z,100187.16
2022-09-04T14:39:14.834Z,100192.47
2022-09-04T14:42:12.106Z,100181.84
2022-09-04T14:45:03.788Z,100180.00
2022-09-04T14:47:43.356Z,100189.66
2022-09-04T14:50:16.828Z,100186.91
2022-09-04T14:52:50.495Z,100179.81
2022-09-04T14:55:29.493Z,100178.00
2022-09-04T14:58:06.153Z,100184.19
2022-09-04T15:00:35.772Z,100192.13
2022-09-04T15:03:13.367Z,100177.94
2022-09-04T15:05:55.728Z,100176.22
2022-09-04T15:08:34.687Z,100176.22
2022-09-04T15:11:10.497Z,100185.97
2022-09-04T15:13:52.957Z,100185.13
2022-09-04T15:16:29.459Z,100192.22
2022-09-04T15:19:06.465Z,100179.84
2022-09-04T15:21:44.575Z,100183.41
2022-09-04T15:24:26.788Z,100186.09
2022-09-04T15:27:06.176Z,100195.81
2022-09-04T15:29:41.870Z,100186.09
2022-09-04T15:32:21.999Z,100192.25
2022-09-04T15:34:51.388Z,100195.84
2022-09-04T15:37:25.434Z,100193.19
2022-09-04T15:40:06.405Z,100195.88
2022-09-04T15:42:46.306Z,100193.25
2022-09-04T15:45:24.731Z,100187.91
2022-09-04T15:48:10.132Z,100187.91
2022-09-04T15:50:56.783Z,100187.03
2022-09-04T15:53:30.397Z,100186.19
2022-09-04T15:56:10.568Z,100185.31
2022-09-04T15:59:00.055Z,100188.88
2022-09-04T16:01:32.173Z,100195.97
2022-09-04T16:04:12.629Z,100189.75
2022-09-04T16:06:48.475Z,100182.69
2022-09-04T16:09:26.156Z,100190.66
2022-09-04T16:12:07.141Z,100195.09
2022-09-04T16:14:45.855Z,100189.84
2022-09-04T16:17:21.081Z,100192.50
2022-09-04T16:19:58.206Z,100192.50
2022-09-04T16:22:36.446Z,100194.28
2022-09-04T16:25:12.823Z,100196.97
2022-09-04T16:27:49.293Z,100202.31
2022-09-04T16:30:41.746Z,100198.78
2022-09-04T16:33:28.144Z,100203.19
2022-09-04T16:36:04.885Z,100197.88
2022-09-04T16:38:47.448Z,100197.88
2022-09-04T16:41:25.745Z,100197.00
2022-09-04T16:44:16.709Z,100197.03
2022-09-04T16:47:04.677Z,100204.13
2022-09-04T16:49:47.128Z,100201.50
2022-09-04T16:52:44.845Z,100197.09
2022-09-04T16:55:24.802Z,100206.84
2022-09-04T16:58:08.846Z,100203.34
2022-09-04T17:01:13.915Z,100198.03
2022-09-04T17:04:12.945Z,100198.06
2022-09-04T17:07:00.531Z,100201.59
2022-09-04T17:09:39.716Z,100204.31
2022-09-04T17:12:26.527Z,100214.94
2022-09-04T17:15:06.943Z,100202.56
2022-09-04T17:17:41.037Z,100203.44
2022-09-04T17:20:16.327Z,100207.94
2022-09-04T17:29:01.749Z,100201.72
2022-09-04T17:29:11.748Z,100201.75
2022-09-04T17:29:11.927Z,100199.97
2022-09-04T17:31:53.353Z,100200.94
2022-09-04T17:40:08.941Z,100200.06
2022-09-04T17:40:46.673Z,100198.31
2022-09-04T17:41:36.177Z,100204.53
2022-09-04T17:44:10.488Z,100201.91
2022-09-04T17:46:45.065Z,100201.03
2022-09-04T17:49:20.153Z,100208.13
2022-09-04T17:51:57.552Z,100200.16
2022-09-04T17:54:30.875Z,100194.03
2022-09-04T17:57:02.987Z,100194.03
2022-09-04T17:59:45.393Z,100215.25
2022-09-04T18:02:20.947Z,100213.50
2022-09-04T18:04:57.260Z,100209.13
2022-09-04T18:08:07.521Z,100208.25
2022-09-04T18:10:34.239Z,100207.34
2022-09-04T18:13:36.704Z,100213.59
2022-09-04T18:16:21.099Z,100210.94
2022-09-04T18:18:53.829Z,100215.44
2022-09-04T18:21:27.336Z,100220.75
2022-09-04T18:24:02.084Z,100221.63
2022-09-04T18:26:42.729Z,100222.53
2022-09-04T18:31:41.592Z,100224.34
2022-09-04T18:37:07.157Z,100225.25
2022-09-04T18:37:26.027Z,100232.38
2022-09-04T18:39:08.373Z,100235.03
2022-09-04T18:50:26.113Z,100248.38
2022-09-04T18:50:32.229Z,100244.84
2022-09-04T18:50:40.966Z,100243.94
2022-09-04T18:53:54.465Z,100257.28
2022-09-04T18:56:30.532Z,100252.84
2022-09-04T18:59:08.303Z,100255.53
2022-09-04T19:01:44.799Z,100262.63
2022-09-04T19:04:46.819Z,100265.28
2022-09-04T19:07:27.702Z,100275.03
2022-09-04T19:10:22.204Z,100277.69
2022-09-04T19:13:03.255Z,100275.91
2022-09-04T19:15:52.543Z,100269.78
2022-09-04T19:18:32.166Z,100278.63
2022-09-04T19:21:18.905Z,100273.38
2022-09-04T19:23:52.306Z,100268.06
2022-09-04T19:26:32.421Z,100280.44
2022-09-04T19:29:15.010Z,100269.84
2022-09-04T19:31:54.505Z,100277.81
2022-09-04T19:34:33.642Z,100282.25
2022-09-04T19:37:26.044Z,100281.41
2022-09-04T19:45:53.729Z,100269.03
2022-09-04T19:46:19.142Z,100270.84
2022-09-04T19:50:57.135Z,100276.22
2022-09-04T19:53:32.458Z,100277.97
2022-09-04T19:55:23.643Z,100274.50
2022-09-04T19:58:09.849Z,100276.25
2022-09-04T22:18:44.640Z,100327.31
2022-09-04T22:21:52.976Z,100332.59
2022-09-04T22:25:16.376Z,100326.44
2022-09-04T22:28:42.533Z,100321.13
2022-09-04T22:32:04.723Z,100331.69
2022-09-04T22:35:22.426Z,100331.69
2022-09-04T22:38:56.457Z,100329.06
2022-09-04T22:42:17.761Z,100328.22
2022-09-04T22:46:07.147Z,100331.72
2022-09-04T22:50:13.981Z,100329.97
2022-09-04T22:53:35.083Z,100333.50
2022-09-04T23:04:21.347Z,100335.28
2022-09-04T23:13:41.872Z,100339.69
2022-09-04T23:14:25.837Z,100337.94
2022-09-04T23:17:36.112Z,100347.63
2022-09-04T23:26:36.002Z,100345.00
2022-09-04T23:26:46.817Z,100341.47
2022-09-04T23:28:48.293Z,100341.50
2022-09-04T23:32:07.414Z,100341.50
2022-09-04T23:35:14.170Z,100350.28
2022-09-04T23:38:31.085Z,100345.00
2022-09-04T23:41:20.554Z,100345.00
2022-09-04T23:45:17.184Z,100349.41
2022-09-04T23:48:38.137Z,100339.72
2022-09-04T23:52:49.605Z,100333.53
